Hydetown, Pennsylvania
Current Conditions -  °F | °C
As of 5:15 PM on Wednesday 28 Jan 2015 (Local Time) from KFKL Reporting Station
Clear Clear  
Wind Chill: 13°   Ceiling: Unl
Heat Index: 21°   Visibility: 10mi
Dew Point:   Wind: 7mph
Humidity: 39%   Direction: 270°W
Pressure: 30.28"   Gusts: NA
Location:  41.65°N, 79.73°W
Report Text: KFKL 282215Z AUTO 27006KT 10SM CLR M06/M18 A3028 RMK AO1
Loading
Personal Weather Stations






























Interactive Weather Map New forecast layout! Learn more

10-Day Weather Forecast

Advertisements
Track Severe Weather on mobile